sensor_id;sensor_type;location;lat;lon;timestamp;P1;durP1;ratioP1;P2;durP2;ratioP2
57667;SDS011;43499;52.366;12.912;2023-01-06T00:03:03;10.75;;;3.72;;
57667;SDS011;43499;52.366;12.912;2023-01-06T00:05:09;11.68;;;3.72;;
57667;SDS011;43499;52.366;12.912;2023-01-06T00:06:42;6.20;;;3.63;;
57667;SDS011;43499;52.366;12.912;2023-01-06T00:08:11;12.23;;;3.55;;
57667;SDS011;43499;52.366;12.912;2023-01-06T00:09:47;7.82;;;3.83;;
57667;SDS011;43499;52.366;12.912;2023-01-06T00:11:52;12.00;;;4.63;;
57667;SDS011;43499;52.366;12.912;2023-01-06T00:13:18;15.43;;;4.25;;
57667;SDS011;43499;52.366;12.912;2023-01-06T00:15:24;13.77;;;3.85;;
57667;SDS011;43499;52.366;12.912;2023-01-06T00:17:04;10.45;;;4.05;;
57667;SDS011;43499;52.366;12.912;2023-01-06T00:20:39;11.52;;;3.83;;
57667;SDS011;43499;52.366;12.912;2023-01-06T00:21:47;12.73;;;3.80;;
57667;SDS011;43499;52.366;12.912;2023-01-06T00:23:22;7.97;;;3.42;;
57667;SDS011;43499;52.366;12.912;2023-01-06T00:24:28;9.75;;;3.97;;
57667;SDS011;43499;52.366;12.912;2023-01-06T00:27:29;14.02;;;4.13;;
57667;SDS011;43499;52.366;12.912;2023-01-06T00:29:22;12.77;;;4.45;;
57667;SDS011;43499;52.366;12.912;2023-01-06T00:30:37;11.48;;;4.00;;
57667;SDS011;43499;52.366;12.912;2023-01-06T00:31:50;10.82;;;4.05;;
57667;SDS011;43499;52.366;12.912;2023-01-06T00:33:53;12.88;;;3.50;;
57667;SDS011;43499;52.366;12.912;2023-01-06T00:35:06;9.90;;;3.22;;
57667;SDS011;43499;52.366;12.912;2023-01-06T00:37:23;11.07;;;3.10;;
57667;SDS011;43499;52.366;12.912;2023-01-06T00:40:45;8.20;;;3.60;;
57667;SDS011;43499;52.366;12.912;2023-01-06T00:42:10;14.13;;;3.67;;
57667;SDS011;43499;52.366;12.912;2023-01-06T00:45:35;12.82;;;4.13;;
57667;SDS011;43499;52.366;12.912;2023-01-06T00:46:55;12.88;;;4.00;;
57667;SDS011;43499;52.366;12.912;2023-01-06T00:48:29;8.82;;;3.75;;
57667;SDS011;43499;52.366;12.912;2023-01-06T00:51:55;9.50;;;3.38;;
57667;SDS011;43499;52.366;12.912;2023-01-06T00:54:13;8.93;;;3.33;;
57667;SDS011;43499;52.366;12.912;2023-01-06T00:56:35;8.68;;;3.10;;
57667;SDS011;43499;52.366;12.912;2023-01-06T00:57:41;6.35;;;3.55;;
57667;SDS011;43499;52.366;12.912;2023-01-06T01:00:40;10.57;;;3.50;;
57667;SDS011;43499;52.366;12.912;2023-01-06T01:01:41;6.10;;;3.67;;
57667;SDS011;43499;52.366;12.912;2023-01-06T01:02:43;11.60;;;4.13;;
57667;SDS011;43499;52.366;12.912;2023-01-06T01:03:44;9.38;;;3.50;;
57667;SDS011;43499;52.366;12.912;2023-01-06T01:04:45;9.93;;;3.40;;
57667;SDS011;43499;52.366;12.912;2023-01-06T01:05:46;10.73;;;3.13;;
57667;SDS011;43499;52.366;12.912;2023-01-06T01:06:48;9.75;;;3.92;;
57667;SDS011;43499;52.366;12.912;2023-01-06T01:07:50;14.27;;;3.88;;
57667;SDS011;43499;52.366;12.912;2023-01-06T01:08:52;13.50;;;4.47;;
57667;SDS011;43499;52.366;12.912;2023-01-06T01:09:57;13.32;;;3.72;;
57667;SDS011;43499;52.366;12.912;2023-01-06T01:11:01;15.20;;;4.22;;
57667;SDS011;43499;52.366;12.912;2023-01-06T01:12:04;11.73;;;3.67;;
57667;SDS011;43499;52.366;12.912;2023-01-06T01:13:14;15.73;;;4.00;;
57667;SDS011;43499;52.366;12.912;2023-01-06T01:14:16;8.20;;;3.40;;
57667;SDS011;43499;52.366;12.912;2023-01-06T01:15:18;12.40;;;3.80;;
57667;SDS011;43499;52.366;12.912;2023-01-06T01:16:19;12.00;;;3.80;;
57667;SDS011;43499;52.366;12.912;2023-01-06T01:17:21;11.75;;;3.88;;
57667;SDS011;43499;52.366;12.912;2023-01-06T01:18:24;6.70;;;3.65;;
57667;SDS011;43499;52.366;12.912;2023-01-06T01:19:25;14.93;;;4.75;;
57667;SDS011;43499;52.366;12.912;2023-01-06T01:20:27;13.05;;;4.10;;
57667;SDS011;43499;52.366;12.912;2023-01-06T01:21:28;11.55;;;3.42;;
57667;SDS011;43499;52.366;12.912;2023-01-06T01:22:29;12.15;;;4.22;;
57667;SDS011;43499;52.366;12.912;2023-01-06T01:23:31;10.70;;;3.70;;
57667;SDS011;43499;52.366;12.912;2023-01-06T01:24:32;9.57;;;3.15;;
57667;SDS011;43499;52.366;12.912;2023-01-06T01:25:33;11.77;;;3.67;;
57667;SDS011;43499;52.366;12.912;2023-01-06T01:26:34;18.00;;;4.30;;
57667;SDS011;43499;52.366;12.912;2023-01-06T01:27:35;11.70;;;4.70;;
57667;SDS011;43499;52.366;12.912;2023-01-06T01:28:36;20.92;;;3.85;;
57667;SDS011;43499;52.366;12.912;2023-01-06T01:29:37;9.45;;;4.05;;
57667;SDS011;43499;52.366;12.912;2023-01-06T01:30:38;8.38;;;4.05;;
57667;SDS011;43499;52.366;12.912;2023-01-06T01:31:39;14.23;;;3.90;;
57667;SDS011;43499;52.366;12.912;2023-01-06T01:32:41;11.75;;;4.00;;
57667;SDS011;43499;52.366;12.912;2023-01-06T01:33:42;21.08;;;4.95;;
57667;SDS011;43499;52.366;12.912;2023-01-06T01:34:43;11.70;;;3.65;;
57667;SDS011;43499;52.366;12.912;2023-01-06T01:35:44;12.35;;;4.38;;
57667;SDS011;43499;52.366;12.912;2023-01-06T01:36:46;10.13;;;3.67;;
57667;SDS011;43499;52.366;12.912;2023-01-06T01:37:47;12.32;;;3.65;;
57667;SDS011;43499;52.366;12.912;2023-01-06T01:38:49;15.75;;;4.70;;
57667;SDS011;43499;52.366;12.912;2023-01-06T01:39:50;10.95;;;4.32;;
57667;SDS011;43499;52.366;12.912;2023-01-06T01:40:51;8.82;;;3.72;;
57667;SDS011;43499;52.366;12.912;2023-01-06T01:41:52;10.07;;;3.58;;
57667;SDS011;43499;52.366;12.912;2023-01-06T01:42:54;12.73;;;4.13;;
57667;SDS011;43499;52.366;12.912;2023-01-06T01:43:59;16.50;;;5.03;;
57667;SDS011;43499;52.366;12.912;2023-01-06T01:45:03;15.10;;;3.80;;
57667;SDS011;43499;52.366;12.912;2023-01-06T01:46:06;12.50;;;3.95;;
57667;SDS011;43499;52.366;12.912;2023-01-06T01:47:07;19.50;;;4.20;;
57667;SDS011;43499;52.366;12.912;2023-01-06T01:48:13;15.43;;;4.82;;
57667;SDS011;43499;52.366;12.912;2023-01-06T01:49:42;12.48;;;4.18;;
57667;SDS011;43499;52.366;12.912;2023-01-06T01:50:46;13.88;;;3.47;;
57667;SDS011;43499;52.366;12.912;2023-01-06T01:51:52;12.48;;;3.72;;
57667;SDS011;43499;52.366;12.912;2023-01-06T01:53:01;9.48;;;3.55;;
57667;SDS011;43499;52.366;12.912;2023-01-06T01:54:07;15.43;;;4.47;;
57667;SDS011;43499;52.366;12.912;2023-01-06T01:55:10;15.52;;;4.40;;
57667;SDS011;43499;52.366;12.912;2023-01-06T01:56:15;16.17;;;3.67;;
57667;SDS011;43499;52.366;12.912;2023-01-06T01:57:33;15.75;;;4.22;;
57667;SDS011;43499;52.366;12.912;2023-01-06T01:58:40;10.20;;;3.92;;
57667;SDS011;43499;52.366;12.912;2023-01-06T01:59:45;15.15;;;3.25;;
57667;SDS011;43499;52.366;12.912;2023-01-06T02:00:47;12.52;;;4.13;;
57667;SDS011;43499;52.366;12.912;2023-01-06T02:01:50;15.38;;;3.60;;
57667;SDS011;43499;52.366;12.912;2023-01-06T02:02:52;11.65;;;3.50;;
57667;SDS011;43499;52.366;12.912;2023-01-06T02:03:53;13.90;;;4.13;;
57667;SDS011;43499;52.366;12.912;2023-01-06T02:04:54;14.43;;;3.58;;
57667;SDS011;43499;52.366;12.912;2023-01-06T02:05:56;10.35;;;4.72;;
57667;SDS011;43499;52.366;12.912;2023-01-06T02:07:01;11.23;;;3.58;;
57667;SDS011;43499;52.366;12.912;2023-01-06T02:08:04;15.15;;;3.97;;
57667;SDS011;43499;52.366;12.912;2023-01-06T02:10:22;13.48;;;3.78;;
57667;SDS011;43499;52.366;12.912;2023-01-06T02:11:24;15.43;;;4.10;;
57667;SDS011;43499;52.366;12.912;2023-01-06T02:12:27;12.98;;;3.97;;
57667;SDS011;43499;52.366;12.912;2023-01-06T02:13:28;9.10;;;3.63;;
57667;SDS011;43499;52.366;12.912;2023-01-06T02:14:31;25.40;;;4.72;;
57667;SDS011;43499;52.366;12.912;2023-01-06T02:15:34;14.00;;;4.32;;
57667;SDS011;43499;52.366;12.912;2023-01-06T02:17:00;11.00;;;4.30;;
57667;SDS011;43499;52.366;12.912;2023-01-06T02:22:31;7.63;;;3.60;;
57667;SDS011;43499;52.366;12.912;2023-01-06T02:28:42;6.93;;;3.33;;
57667;SDS011;43499;52.366;12.912;2023-01-06T02:31:39;10.80;;;4.07;;
57667;SDS011;43499;52.366;12.912;2023-01-06T02:33:09;8.27;;;3.85;;
57667;SDS011;43499;52.366;12.912;2023-01-06T02:35:51;13.30;;;4.57;;
57667;SDS011;43499;52.366;12.912;2023-01-06T02:37:20;20.33;;;4.28;;
57667;SDS011;43499;52.366;12.912;2023-01-06T02:40:23;12.85;;;3.75;;
57667;SDS011;43499;52.366;12.912;2023-01-06T02:41:45;14.48;;;3.67;;
57667;SDS011;43499;52.366;12.912;2023-01-06T02:43:13;14.75;;;3.72;;
57667;SDS011;43499;52.366;12.912;2023-01-06T02:44:31;12.90;;;3.60;;
57667;SDS011;43499;52.366;12.912;2023-01-06T02:45:43;9.57;;;4.10;;
57667;SDS011;43499;52.366;12.912;2023-01-06T02:49:34;13.75;;;3.72;;
57667;SDS011;43499;52.366;12.912;2023-01-06T02:50:50;14.90;;;3.72;;
57667;SDS011;43499;52.366;12.912;2023-01-06T02:52:06;11.95;;;3.42;;
57667;SDS011;43499;52.366;12.912;2023-01-06T02:53:19;14.48;;;3.60;;
57667;SDS011;43499;52.366;12.912;2023-01-06T02:54:37;11.25;;;3.28;;
57667;SDS011;43499;52.366;12.912;2023-01-06T02:55:54;10.02;;;3.58;;
57667;SDS011;43499;52.366;12.912;2023-01-06T02:57:00;11.57;;;3.90;;
57667;SDS011;43499;52.366;12.912;2023-01-06T02:58:12;8.05;;;2.95;;
57667;SDS011;43499;52.366;12.912;2023-01-06T02:59:25;9.52;;;3.75;;
57667;SDS011;43499;52.366;12.912;2023-01-06T03:00:34;7.85;;;3.90;;
57667;SDS011;43499;52.366;12.912;2023-01-06T03:01:57;12.23;;;3.75;;
57667;SDS011;43499;52.366;12.912;2023-01-06T03:03:04;8.85;;;4.03;;
57667;SDS011;43499;52.366;12.912;2023-01-06T03:04:13;13.95;;;3.95;;
57667;SDS011;43499;52.366;12.912;2023-01-06T03:05:18;17.60;;;4.32;;
57667;SDS011;43499;52.366;12.912;2023-01-06T03:06:24;12.23;;;4.00;;
57667;SDS011;43499;52.366;12.912;2023-01-06T03:07:28;12.45;;;3.67;;
57667;SDS011;43499;52.366;12.912;2023-01-06T03:08:32;18.88;;;3.88;;
57667;SDS011;43499;52.366;12.912;2023-01-06T03:09:35;12.90;;;3.90;;
57667;SDS011;43499;52.366;12.912;2023-01-06T03:10:38;10.25;;;3.40;;
57667;SDS011;43499;52.366;12.912;2023-01-06T03:11:42;10.05;;;3.70;;
57667;SDS011;43499;52.366;12.912;2023-01-06T03:12:50;9.85;;;3.95;;
57667;SDS011;43499;52.366;12.912;2023-01-06T03:13:57;10.40;;;4.65;;
57667;SDS011;43499;52.366;12.912;2023-01-06T03:15:02;8.82;;;4.07;;
57667;SDS011;43499;52.366;12.912;2023-01-06T03:16:04;16.17;;;4.13;;
57667;SDS011;43499;52.366;12.912;2023-01-06T03:17:06;8.15;;;3.67;;
57667;SDS011;43499;52.366;12.912;2023-01-06T03:18:07;14.93;;;4.65;;
57667;SDS011;43499;52.366;12.912;2023-01-06T03:19:09;11.88;;;3.53;;
57667;SDS011;43499;52.366;12.912;2023-01-06T03:20:10;16.65;;;4.88;;
57667;SDS011;43499;52.366;12.912;2023-01-06T03:21:14;27.38;;;6.78;;
57667;SDS011;43499;52.366;12.912;2023-01-06T03:22:19;14.23;;;4.60;;
57667;SDS011;43499;52.366;12.912;2023-01-06T03:23:21;15.98;;;4.38;;
57667;SDS011;43499;52.366;12.912;2023-01-06T03:24:23;12.10;;;4.78;;
57667;SDS011;43499;52.366;12.912;2023-01-06T03:25:26;18.20;;;5.70;;
57667;SDS011;43499;52.366;12.912;2023-01-06T03:26:27;8.25;;;4.60;;
57667;SDS011;43499;52.366;12.912;2023-01-06T03:27:28;17.45;;;4.53;;
57667;SDS011;43499;52.366;12.912;2023-01-06T03:28:30;17.50;;;5.45;;
57667;SDS011;43499;52.366;12.912;2023-01-06T03:29:31;13.10;;;5.25;;
57667;SDS011;43499;52.366;12.912;2023-01-06T03:30:36;15.45;;;5.13;;
57667;SDS011;43499;52.366;12.912;2023-01-06T03:32:08;22.65;;;6.30;;
57667;SDS011;43499;52.366;12.912;2023-01-06T03:33:28;15.35;;;5.63;;
57667;SDS011;43499;52.366;12.912;2023-01-06T03:34:50;20.90;;;6.20;;
57667;SDS011;43499;52.366;12.912;2023-01-06T03:36:21;14.25;;;5.88;;
57667;SDS011;43499;52.366;12.912;2023-01-06T03:38:57;17.70;;;5.70;;
57667;SDS011;43499;52.366;12.912;2023-01-06T03:40:04;19.98;;;6.72;;
57667;SDS011;43499;52.366;12.912;2023-01-06T03:41:23;13.70;;;6.57;;
57667;SDS011;43499;52.366;12.912;2023-01-06T03:44:45;16.77;;;7.03;;
57667;SDS011;43499;52.366;12.912;2023-01-06T03:46:01;10.70;;;6.15;;
57667;SDS011;43499;52.366;12.912;2023-01-06T03:47:33;16.13;;;6.05;;
57667;SDS011;43499;52.366;12.912;2023-01-06T03:48:56;12.77;;;6.72;;
57667;SDS011;43499;52.366;12.912;2023-01-06T03:50:05;15.82;;;7.28;;
57667;SDS011;43499;52.366;12.912;2023-01-06T03:51:26;13.98;;;7.05;;
57667;SDS011;43499;52.366;12.912;2023-01-06T03:53:09;23.55;;;7.05;;
57667;SDS011;43499;52.366;12.912;2023-01-06T03:54:44;16.83;;;6.97;;
57667;SDS011;43499;52.366;12.912;2023-01-06T03:56:12;13.23;;;6.38;;
57667;SDS011;43499;52.366;12.912;2023-01-06T03:57:31;22.88;;;7.10;;
57667;SDS011;43499;52.366;12.912;2023-01-06T03:58:34;21.85;;;8.02;;
57667;SDS011;43499;52.366;12.912;2023-01-06T03:59:45;16.75;;;7.45;;
57667;SDS011;43499;52.366;12.912;2023-01-06T04:00:50;15.32;;;7.30;;
57667;SDS011;43499;52.366;12.912;2023-01-06T04:01:51;23.77;;;7.15;;
57667;SDS011;43499;52.366;12.912;2023-01-06T04:02:54;17.95;;;7.68;;
57667;SDS011;43499;52.366;12.912;2023-01-06T04:03:58;17.10;;;7.72;;
57667;SDS011;43499;52.366;12.912;2023-01-06T04:05:04;20.63;;;7.38;;
57667;SDS011;43499;52.366;12.912;2023-01-06T04:06:09;17.52;;;7.43;;
57667;SDS011;43499;52.366;12.912;2023-01-06T04:07:12;23.30;;;8.13;;
57667;SDS011;43499;52.366;12.912;2023-01-06T04:08:15;17.67;;;7.85;;
57667;SDS011;43499;52.366;12.912;2023-01-06T04:09:16;15.95;;;6.70;;
57667;SDS011;43499;52.366;12.912;2023-01-06T04:10:19;21.55;;;8.65;;
57667;SDS011;43499;52.366;12.912;2023-01-06T04:11:24;14.88;;;7.80;;
57667;SDS011;43499;52.366;12.912;2023-01-06T04:12:44;18.15;;;7.13;;
57667;SDS011;43499;52.366;12.912;2023-01-06T04:13:49;15.57;;;6.63;;
57667;SDS011;43499;52.366;12.912;2023-01-06T04:14:50;20.35;;;7.65;;
57667;SDS011;43499;52.366;12.912;2023-01-06T04:15:51;13.43;;;6.88;;
57667;SDS011;43499;52.366;12.912;2023-01-06T04:16:52;14.43;;;7.13;;
57667;SDS011;43499;52.366;12.912;2023-01-06T04:17:53;18.55;;;7.35;;
57667;SDS011;43499;52.366;12.912;2023-01-06T04:18:55;19.25;;;7.15;;
57667;SDS011;43499;52.366;12.912;2023-01-06T04:19:56;17.02;;;7.82;;
57667;SDS011;43499;52.366;12.912;2023-01-06T04:20:57;23.75;;;7.78;;
57667;SDS011;43499;52.366;12.912;2023-01-06T04:22:01;21.05;;;6.88;;
57667;SDS011;43499;52.366;12.912;2023-01-06T04:23:04;17.08;;;7.35;;
57667;SDS011;43499;52.366;12.912;2023-01-06T04:24:10;17.08;;;7.45;;
57667;SDS011;43499;52.366;12.912;2023-01-06T04:25:11;16.70;;;7.57;;
57667;SDS011;43499;52.366;12.912;2023-01-06T04:26:14;12.30;;;7.10;;
57667;SDS011;43499;52.366;12.912;2023-01-06T04:27:21;13.65;;;7.05;;
57667;SDS011;43499;52.366;12.912;2023-01-06T04:28:22;18.55;;;6.22;;
57667;SDS011;43499;52.366;12.912;2023-01-06T04:29:25;18.80;;;7.03;;
57667;SDS011;43499;52.366;12.912;2023-01-06T04:30:28;17.42;;;7.00;;
57667;SDS011;43499;52.366;12.912;2023-01-06T04:31:30;15.07;;;6.75;;
57667;SDS011;43499;52.366;12.912;2023-01-06T04:32:32;17.02;;;6.32;;
57667;SDS011;43499;52.366;12.912;2023-01-06T04:33:34;15.10;;;6.13;;
57667;SDS011;43499;52.366;12.912;2023-01-06T04:34:38;13.35;;;5.80;;
57667;SDS011;43499;52.366;12.912;2023-01-06T04:35:39;13.77;;;6.80;;
57667;SDS011;43499;52.366;12.912;2023-01-06T04:36:40;10.63;;;5.63;;
57667;SDS011;43499;52.366;12.912;2023-01-06T04:37:41;15.05;;;6.47;;
57667;SDS011;43499;52.366;12.912;2023-01-06T04:38:42;14.07;;;6.18;;
57667;SDS011;43499;52.366;12.912;2023-01-06T04:39:43;14.77;;;5.80;;
57667;SDS011;43499;52.366;12.912;2023-01-06T04:40:44;17.45;;;6.47;;
57667;SDS011;43499;52.366;12.912;2023-01-06T04:41:45;15.40;;;6.28;;
57667;SDS011;43499;52.366;12.912;2023-01-06T04:42:46;15.00;;;6.75;;
57667;SDS011;43499;52.366;12.912;2023-01-06T04:44:06;14.27;;;6.13;;
57667;SDS011;43499;52.366;12.912;2023-01-06T04:45:07;18.13;;;7.38;;
57667;SDS011;43499;52.366;12.912;2023-01-06T04:46:08;14.15;;;6.47;;
57667;SDS011;43499;52.366;12.912;2023-01-06T04:47:09;29.15;;;7.05;;
57667;SDS011;43499;52.366;12.912;2023-01-06T04:48:11;21.33;;;7.20;;
57667;SDS011;43499;52.366;12.912;2023-01-06T04:49:13;16.00;;;6.38;;
57667;SDS011;43499;52.366;12.912;2023-01-06T04:50:14;20.08;;;6.50;;
57667;SDS011;43499;52.366;12.912;2023-01-06T04:51:15;27.17;;;7.88;;
57667;SDS011;43499;52.366;12.912;2023-01-06T04:52:16;16.90;;;6.63;;
57667;SDS011;43499;52.366;12.912;2023-01-06T04:53:17;18.08;;;6.63;;
57667;SDS011;43499;52.366;12.912;2023-01-06T04:54:18;15.13;;;6.00;;
57667;SDS011;43499;52.366;12.912;2023-01-06T04:55:19;13.45;;;6.30;;
57667;SDS011;43499;52.366;12.912;2023-01-06T04:56:20;14.65;;;6.22;;
57667;SDS011;43499;52.366;12.912;2023-01-06T04:57:22;15.68;;;6.18;;
57667;SDS011;43499;52.366;12.912;2023-01-06T04:58:23;21.73;;;7.68;;
57667;SDS011;43499;52.366;12.912;2023-01-06T04:59:24;21.15;;;6.10;;
57667;SDS011;43499;52.366;12.912;2023-01-06T05:00:25;19.42;;;6.60;;
57667;SDS011;43499;52.366;12.912;2023-01-06T05:01:26;20.00;;;6.80;;
57667;SDS011;43499;52.366;12.912;2023-01-06T05:02:27;13.15;;;6.38;;
57667;SDS011;43499;52.366;12.912;2023-01-06T05:03:28;16.42;;;7.18;;
57667;SDS011;43499;52.366;12.912;2023-01-06T05:04:30;20.20;;;6.68;;
57667;SDS011;43499;52.366;12.912;2023-01-06T05:05:31;18.10;;;6.63;;
57667;SDS011;43499;52.366;12.912;2023-01-06T05:06:32;17.42;;;6.80;;
57667;SDS011;43499;52.366;12.912;2023-01-06T05:07:34;15.77;;;6.43;;
57667;SDS011;43499;52.366;12.912;2023-01-06T05:08:36;20.83;;;6.28;;
57667;SDS011;43499;52.366;12.912;2023-01-06T05:09:37;13.70;;;6.35;;
57667;SDS011;43499;52.366;12.912;2023-01-06T05:10:38;12.93;;;6.57;;
57667;SDS011;43499;52.366;12.912;2023-01-06T05:11:39;17.05;;;7.78;;
57667;SDS011;43499;52.366;12.912;2023-01-06T05:12:40;15.68;;;6.07;;
57667;SDS011;43499;52.366;12.912;2023-01-06T05:13:41;19.45;;;6.72;;
57667;SDS011;43499;52.366;12.912;2023-01-06T05:14:42;13.43;;;7.07;;
57667;SDS011;43499;52.366;12.912;2023-01-06T05:15:43;15.48;;;6.75;;
57667;SDS011;43499;52.366;12.912;2023-01-06T05:16:44;15.77;;;5.95;;
57667;SDS011;43499;52.366;12.912;2023-01-06T05:17:45;28.98;;;8.05;;
57667;SDS011;43499;52.366;12.912;2023-01-06T05:18:46;13.77;;;5.88;;
57667;SDS011;43499;52.366;12.912;2023-01-06T05:19:47;16.52;;;6.57;;
57667;SDS011;43499;52.366;12.912;2023-01-06T05:20:49;13.20;;;6.28;;
57667;SDS011;43499;52.366;12.912;2023-01-06T05:21:51;19.02;;;6.05;;
57667;SDS011;43499;52.366;12.912;2023-01-06T05:22:52;18.73;;;6.30;;
57667;SDS011;43499;52.366;12.912;2023-01-06T05:23:53;13.75;;;6.28;;
57667;SDS011;43499;52.366;12.912;2023-01-06T05:24:55;16.08;;;6.15;;
57667;SDS011;43499;52.366;12.912;2023-01-06T05:25:56;15.23;;;5.85;;
57667;SDS011;43499;52.366;12.912;2023-01-06T05:26:57;19.00;;;6.38;;
57667;SDS011;43499;52.366;12.912;2023-01-06T05:27:58;14.30;;;6.57;;
57667;SDS011;43499;52.366;12.912;2023-01-06T05:28:59;14.57;;;6.57;;
57667;SDS011;43499;52.366;12.912;2023-01-06T05:30:00;19.27;;;7.25;;
57667;SDS011;43499;52.366;12.912;2023-01-06T05:31:02;9.63;;;5.85;;
57667;SDS011;43499;52.366;12.912;2023-01-06T05:32:04;15.23;;;6.10;;
57667;SDS011;43499;52.366;12.912;2023-01-06T05:33:05;19.67;;;8.40;;
57667;SDS011;43499;52.366;12.912;2023-01-06T05:34:08;15.00;;;6.35;;
57667;SDS011;43499;52.366;12.912;2023-01-06T05:35:10;18.08;;;6.32;;
57667;SDS011;43499;52.366;12.912;2023-01-06T05:36:12;18.25;;;7.35;;
57667;SDS011;43499;52.366;12.912;2023-01-06T05:37:15;23.70;;;7.93;;
57667;SDS011;43499;52.366;12.912;2023-01-06T05:38:16;17.73;;;6.95;;
57667;SDS011;43499;52.366;12.912;2023-01-06T05:39:17;16.38;;;6.72;;
57667;SDS011;43499;52.366;12.912;2023-01-06T05:40:18;15.18;;;6.72;;
57667;SDS011;43499;52.366;12.912;2023-01-06T05:41:19;23.38;;;7.75;;
57667;SDS011;43499;52.366;12.912;2023-01-06T05:42:20;15.63;;;6.63;;
57667;SDS011;43499;52.366;12.912;2023-01-06T05:43:21;14.38;;;6.47;;
57667;SDS011;43499;52.366;12.912;2023-01-06T05:44:23;21.73;;;7.55;;
57667;SDS011;43499;52.366;12.912;2023-01-06T05:45:24;18.65;;;6.55;;
57667;SDS011;43499;52.366;12.912;2023-01-06T05:46:25;16.92;;;6.80;;
57667;SDS011;43499;52.366;12.912;2023-01-06T05:47:26;17.90;;;7.78;;
57667;SDS011;43499;52.366;12.912;2023-01-06T05:48:27;17.20;;;7.10;;
57667;SDS011;43499;52.366;12.912;2023-01-06T05:49:28;18.17;;;7.55;;
57667;SDS011;43499;52.366;12.912;2023-01-06T05:50:29;17.98;;;7.50;;
57667;SDS011;43499;52.366;12.912;2023-01-06T05:51:30;16.00;;;6.85;;
57667;SDS011;43499;52.366;12.912;2023-01-06T05:52:31;19.45;;;6.78;;
57667;SDS011;43499;52.366;12.912;2023-01-06T05:53:33;21.38;;;7.13;;
57667;SDS011;43499;52.366;12.912;2023-01-06T05:54:35;16.38;;;7.15;;
57667;SDS011;43499;52.366;12.912;2023-01-06T05:55:36;16.25;;;7.47;;
57667;SDS011;43499;52.366;12.912;2023-01-06T05:56:37;26.50;;;7.30;;
57667;SDS011;43499;52.366;12.912;2023-01-06T05:57:38;21.38;;;7.75;;
57667;SDS011;43499;52.366;12.912;2023-01-06T05:58:39;15.57;;;6.68;;
57667;SDS011;43499;52.366;12.912;2023-01-06T05:59:44;16.88;;;6.80;;
57667;SDS011;43499;52.366;12.912;2023-01-06T06:00:45;19.83;;;7.30;;
57667;SDS011;43499;52.366;12.912;2023-01-06T06:01:46;17.38;;;7.10;;
57667;SDS011;43499;52.366;12.912;2023-01-06T06:02:47;22.48;;;6.80;;
57667;SDS011;43499;52.366;12.912;2023-01-06T06:03:48;17.95;;;7.18;;
57667;SDS011;43499;52.366;12.912;2023-01-06T06:04:50;15.85;;;7.43;;
57667;SDS011;43499;52.366;12.912;2023-01-06T06:05:51;20.55;;;7.13;;
57667;SDS011;43499;52.366;12.912;2023-01-06T06:06:52;16.30;;;6.93;;
57667;SDS011;43499;52.366;12.912;2023-01-06T06:07:54;15.40;;;7.30;;
57667;SDS011;43499;52.366;12.912;2023-01-06T06:08:56;16.58;;;6.97;;
57667;SDS011;43499;52.366;12.912;2023-01-06T06:09:58;19.95;;;7.40;;
57667;SDS011;43499;52.366;12.912;2023-01-06T06:11:06;20.00;;;6.95;;
57667;SDS011;43499;52.366;12.912;2023-01-06T06:12:08;15.05;;;6.57;;
57667;SDS011;43499;52.366;12.912;2023-01-06T06:13:09;14.73;;;6.68;;
57667;SDS011;43499;52.366;12.912;2023-01-06T06:14:11;15.02;;;7.00;;
57667;SDS011;43499;52.366;12.912;2023-01-06T06:15:12;18.05;;;7.47;;
57667;SDS011;43499;52.366;12.912;2023-01-06T06:16:13;18.17;;;6.97;;
57667;SDS011;43499;52.366;12.912;2023-01-06T06:17:15;19.02;;;7.30;;
57667;SDS011;43499;52.366;12.912;2023-01-06T06:18:16;16.55;;;6.65;;
57667;SDS011;43499;52.366;12.912;2023-01-06T06:19:18;12.80;;;6.20;;
57667;SDS011;43499;52.366;12.912;2023-01-06T06:20:19;10.23;;;6.25;;
57667;SDS011;43499;52.366;12.912;2023-01-06T06:21:21;11.63;;;6.55;;
57667;SDS011;43499;52.366;12.912;2023-01-06T06:22:24;16.95;;;6.40;;
57667;SDS011;43499;52.366;12.912;2023-01-06T06:23:25;11.90;;;6.18;;
57667;SDS011;43499;52.366;12.912;2023-01-06T06:24:26;19.05;;;7.13;;
57667;SDS011;43499;52.366;12.912;2023-01-06T06:25:27;14.25;;;6.95;;
57667;SDS011;43499;52.366;12.912;2023-01-06T06:26:29;12.98;;;5.90;;
57667;SDS011;43499;52.366;12.912;2023-01-06T06:27:30;18.35;;;6.70;;
57667;SDS011;43499;52.366;12.912;2023-01-06T06:28:32;15.15;;;6.65;;
57667;SDS011;43499;52.366;12.912;2023-01-06T06:29:33;12.07;;;6.43;;
57667;SDS011;43499;52.366;12.912;2023-01-06T06:30:34;14.60;;;6.60;;
57667;SDS011;43499;52.366;12.912;2023-01-06T06:31:35;15.00;;;6.60;;
57667;SDS011;43499;52.366;12.912;2023-01-06T06:32:36;12.90;;;6.80;;
57667;SDS011;43499;52.366;12.912;2023-01-06T06:33:38;16.00;;;6.30;;
57667;SDS011;43499;52.366;12.912;2023-01-06T06:34:39;12.65;;;6.22;;
57667;SDS011;43499;52.366;12.912;2023-01-06T06:35:40;16.20;;;7.47;;
57667;SDS011;43499;52.366;12.912;2023-01-06T06:36:41;11.75;;;6.05;;
57667;SDS011;43499;52.366;12.912;2023-01-06T06:37:42;13.77;;;6.40;;
57667;SDS011;43499;52.366;12.912;2023-01-06T06:38:43;15.25;;;6.57;;
57667;SDS011;43499;52.366;12.912;2023-01-06T06:39:45;15.73;;;6.28;;
57667;SDS011;43499;52.366;12.912;2023-01-06T06:40:46;13.18;;;6.07;;
57667;SDS011;43499;52.366;12.912;2023-01-06T06:41:47;10.63;;;5.85;;
57667;SDS011;43499;52.366;12.912;2023-01-06T06:42:49;12.88;;;6.53;;
57667;SDS011;43499;52.366;12.912;2023-01-06T06:43:51;17.00;;;7.55;;
57667;SDS011;43499;52.366;12.912;2023-01-06T06:44:52;13.48;;;6.47;;
57667;SDS011;43499;52.366;12.912;2023-01-06T06:45:53;12.57;;;6.85;;
57667;SDS011;43499;52.366;12.912;2023-01-06T06:46:54;11.98;;;6.10;;
57667;SDS011;43499;52.366;12.912;2023-01-06T06:47:55;13.48;;;6.93;;
57667;SDS011;43499;52.366;12.912;2023-01-06T06:48:57;10.73;;;5.72;;
57667;SDS011;43499;52.366;12.912;2023-01-06T06:49:58;9.93;;;5.85;;
57667;SDS011;43499;52.366;12.912;2023-01-06T06:50:59;16.13;;;6.90;;
57667;SDS011;43499;52.366;12.912;2023-01-06T06:52:01;15.43;;;6.55;;
57667;SDS011;43499;52.366;12.912;2023-01-06T06:53:02;14.60;;;7.15;;
57667;SDS011;43499;52.366;12.912;2023-01-06T06:54:04;12.93;;;6.30;;
57667;SDS011;43499;52.366;12.912;2023-01-06T06:55:05;16.10;;;6.80;;
57667;SDS011;43499;52.366;12.912;2023-01-06T06:56:06;15.65;;;7.00;;
57667;SDS011;43499;52.366;12.912;2023-01-06T06:57:08;12.52;;;7.68;;
57667;SDS011;43499;52.366;12.912;2023-01-06T06:58:09;11.77;;;6.28;;
57667;SDS011;43499;52.366;12.912;2023-01-06T06:59:10;12.63;;;6.90;;
57667;SDS011;43499;52.366;12.912;2023-01-06T07:00:11;15.90;;;7.22;;
57667;SDS011;43499;52.366;12.912;2023-01-06T07:01:14;15.52;;;7.30;;
57667;SDS011;43499;52.366;12.912;2023-01-06T07:02:17;13.55;;;7.30;;
57667;SDS011;43499;52.366;12.912;2023-01-06T07:03:18;14.35;;;7.05;;
57667;SDS011;43499;52.366;12.912;2023-01-06T07:04:20;17.55;;;7.18;;
57667;SDS011;43499;52.366;12.912;2023-01-06T07:05:21;12.65;;;6.78;;
57667;SDS011;43499;52.366;12.912;2023-01-06T07:06:25;13.73;;;6.88;;
57667;SDS011;43499;52.366;12.912;2023-01-06T07:07:27;14.90;;;6.93;;
57667;SDS011;43499;52.366;12.912;2023-01-06T07:08:28;14.20;;;6.88;;